sensor_id;sensor_type;location;lat;lon;timestamp;P1;durP1;ratioP1;P2;durP2;ratioP2
17153;SDS011;8692;52.164;7.558;2023-02-15T00:01:17;15.07;;;11.43;;
17153;SDS011;8692;52.164;7.558;2023-02-15T00:03:48;13.70;;;11.00;;
17153;SDS011;8692;52.164;7.558;2023-02-15T00:06:16;15.80;;;11.33;;
17153;SDS011;8692;52.164;7.558;2023-02-15T00:08:47;14.07;;;11.13;;
17153;SDS011;8692;52.164;7.558;2023-02-15T00:11:15;13.63;;;10.67;;
17153;SDS011;8692;52.164;7.558;2023-02-15T00:14:06;13.67;;;9.97;;
17153;SDS011;8692;52.164;7.558;2023-02-15T00:16:37;16.03;;;10.07;;
17153;SDS011;8692;52.164;7.558;2023-02-15T00:19:07;13.13;;;10.67;;
17153;SDS011;8692;52.164;7.558;2023-02-15T00:21:36;13.33;;;9.63;;
17153;SDS011;8692;52.164;7.558;2023-02-15T00:24:08;13.10;;;9.80;;
17153;SDS011;8692;52.164;7.558;2023-02-15T00:26:38;16.00;;;9.57;;
17153;SDS011;8692;52.164;7.558;2023-02-15T00:29:07;12.63;;;9.90;;
17153;SDS011;8692;52.164;7.558;2023-02-15T00:31:38;13.37;;;10.77;;
17153;SDS011;8692;52.164;7.558;2023-02-15T00:34:10;15.40;;;10.50;;
17153;SDS011;8692;52.164;7.558;2023-02-15T00:36:40;14.43;;;9.80;;
17153;SDS011;8692;52.164;7.558;2023-02-15T00:39:13;11.40;;;9.03;;
17153;SDS011;8692;52.164;7.558;2023-02-15T00:41:42;11.77;;;9.63;;
17153;SDS011;8692;52.164;7.558;2023-02-15T00:44:11;12.67;;;10.37;;
17153;SDS011;8692;52.164;7.558;2023-02-15T00:46:41;12.27;;;9.50;;
17153;SDS011;8692;52.164;7.558;2023-02-15T00:49:10;13.40;;;10.43;;
17153;SDS011;8692;52.164;7.558;2023-02-15T00:51:38;15.23;;;10.40;;
17153;SDS011;8692;52.164;7.558;2023-02-15T00:54:07;13.87;;;10.00;;
17153;SDS011;8692;52.164;7.558;2023-02-15T00:56:35;11.77;;;9.53;;
17153;SDS011;8692;52.164;7.558;2023-02-15T00:59:03;15.30;;;10.20;;
17153;SDS011;8692;52.164;7.558;2023-02-15T01:01:32;11.73;;;10.00;;
17153;SDS011;8692;52.164;7.558;2023-02-15T01:04:01;13.50;;;9.90;;
17153;SDS011;8692;52.164;7.558;2023-02-15T01:06:29;12.73;;;9.97;;
17153;SDS011;8692;52.164;7.558;2023-02-15T01:09:00;13.70;;;11.10;;
17153;SDS011;8692;52.164;7.558;2023-02-15T01:11:28;12.87;;;9.77;;
17153;SDS011;8692;52.164;7.558;2023-02-15T01:13:57;13.27;;;9.63;;
17153;SDS011;8692;52.164;7.558;2023-02-15T01:16:26;12.93;;;9.43;;
17153;SDS011;8692;52.164;7.558;2023-02-15T01:18:56;11.93;;;9.37;;
17153;SDS011;8692;52.164;7.558;2023-02-15T01:21:25;12.80;;;9.97;;
17153;SDS011;8692;52.164;7.558;2023-02-15T01:23:56;11.63;;;8.83;;
17153;SDS011;8692;52.164;7.558;2023-02-15T01:26:25;13.37;;;9.33;;
17153;SDS011;8692;52.164;7.558;2023-02-15T01:28:57;13.00;;;10.13;;
17153;SDS011;8692;52.164;7.558;2023-02-15T01:31:25;11.83;;;8.83;;
17153;SDS011;8692;52.164;7.558;2023-02-15T01:33:53;12.83;;;9.60;;
17153;SDS011;8692;52.164;7.558;2023-02-15T01:36:21;13.30;;;9.80;;
17153;SDS011;8692;52.164;7.558;2023-02-15T01:38:52;11.00;;;8.77;;
17153;SDS011;8692;52.164;7.558;2023-02-15T01:41:20;12.77;;;9.27;;
17153;SDS011;8692;52.164;7.558;2023-02-15T01:43:50;14.63;;;10.07;;
17153;SDS011;8692;52.164;7.558;2023-02-15T01:46:22;14.07;;;9.63;;
17153;SDS011;8692;52.164;7.558;2023-02-15T01:48:59;11.77;;;9.57;;
17153;SDS011;8692;52.164;7.558;2023-02-15T01:51:33;13.97;;;9.80;;
17153;SDS011;8692;52.164;7.558;2023-02-15T01:54:07;14.10;;;9.23;;
17153;SDS011;8692;52.164;7.558;2023-02-15T01:56:38;11.57;;;8.77;;
17153;SDS011;8692;52.164;7.558;2023-02-15T01:59:09;14.83;;;10.07;;
17153;SDS011;8692;52.164;7.558;2023-02-15T02:01:44;12.97;;;9.47;;
17153;SDS011;8692;52.164;7.558;2023-02-15T02:04:17;13.83;;;10.40;;
17153;SDS011;8692;52.164;7.558;2023-02-15T02:06:55;13.63;;;10.13;;
17153;SDS011;8692;52.164;7.558;2023-02-15T02:09:28;15.70;;;9.50;;
17153;SDS011;8692;52.164;7.558;2023-02-15T02:11:59;14.33;;;10.33;;
17153;SDS011;8692;52.164;7.558;2023-02-15T02:14:28;14.30;;;9.97;;
17153;SDS011;8692;52.164;7.558;2023-02-15T02:16:58;15.13;;;10.07;;
17153;SDS011;8692;52.164;7.558;2023-02-15T02:19:49;12.43;;;9.03;;
17153;SDS011;8692;52.164;7.558;2023-02-15T02:32:07;13.00;;;9.37;;
17153;SDS011;8692;52.164;7.558;2023-02-15T02:35:07;14.13;;;8.43;;
17153;SDS011;8692;52.164;7.558;2023-02-15T02:37:45;14.17;;;9.27;;
17153;SDS011;8692;52.164;7.558;2023-02-15T02:40:20;14.50;;;9.10;;
17153;SDS011;8692;52.164;7.558;2023-02-15T02:42:59;14.97;;;9.77;;
17153;SDS011;8692;52.164;7.558;2023-02-15T02:45:31;13.70;;;9.60;;
17153;SDS011;8692;52.164;7.558;2023-02-15T02:48:10;12.60;;;9.30;;
17153;SDS011;8692;52.164;7.558;2023-02-15T02:50:43;12.60;;;8.97;;
17153;SDS011;8692;52.164;7.558;2023-02-15T02:53:11;12.63;;;9.47;;
17153;SDS011;8692;52.164;7.558;2023-02-15T02:55:43;14.50;;;10.27;;
17153;SDS011;8692;52.164;7.558;2023-02-15T02:58:14;14.03;;;8.33;;
17153;SDS011;8692;52.164;7.558;2023-02-15T03:00:48;13.50;;;9.10;;
17153;SDS011;8692;52.164;7.558;2023-02-15T03:03:22;12.20;;;9.73;;
17153;SDS011;8692;52.164;7.558;2023-02-15T03:05:57;13.07;;;8.90;;
17153;SDS011;8692;52.164;7.558;2023-02-15T03:08:32;12.27;;;9.83;;
17153;SDS011;8692;52.164;7.558;2023-02-15T03:11:07;13.53;;;9.37;;
17153;SDS011;8692;52.164;7.558;2023-02-15T03:13:36;16.60;;;10.30;;
17153;SDS011;8692;52.164;7.558;2023-02-15T03:16:07;15.27;;;10.27;;
17153;SDS011;8692;52.164;7.558;2023-02-15T03:18:57;13.87;;;9.53;;
17153;SDS011;8692;52.164;7.558;2023-02-15T03:21:32;16.07;;;10.30;;
17153;SDS011;8692;52.164;7.558;2023-02-15T03:24:07;14.63;;;9.40;;
17153;SDS011;8692;52.164;7.558;2023-02-15T03:26:41;15.07;;;10.33;;
17153;SDS011;8692;52.164;7.558;2023-02-15T03:29:12;12.73;;;8.40;;
17153;SDS011;8692;52.164;7.558;2023-02-15T03:31:43;12.37;;;9.50;;
17153;SDS011;8692;52.164;7.558;2023-02-15T03:34:19;14.57;;;9.33;;
17153;SDS011;8692;52.164;7.558;2023-02-15T03:36:50;13.70;;;9.33;;
17153;SDS011;8692;52.164;7.558;2023-02-15T03:39:24;13.03;;;8.77;;
17153;SDS011;8692;52.164;7.558;2023-02-15T03:42:00;13.93;;;10.03;;
17153;SDS011;8692;52.164;7.558;2023-02-15T03:44:39;14.30;;;9.57;;
17153;SDS011;8692;52.164;7.558;2023-02-15T03:47:19;12.17;;;8.80;;
17153;SDS011;8692;52.164;7.558;2023-02-15T03:49:52;12.27;;;8.70;;
17153;SDS011;8692;52.164;7.558;2023-02-15T03:52:25;11.57;;;9.00;;
17153;SDS011;8692;52.164;7.558;2023-02-15T03:54:57;12.50;;;8.57;;
17153;SDS011;8692;52.164;7.558;2023-02-15T03:57:26;13.73;;;9.73;;
17153;SDS011;8692;52.164;7.558;2023-02-15T04:00:16;14.57;;;9.63;;
17153;SDS011;8692;52.164;7.558;2023-02-15T04:03:08;13.40;;;8.93;;
17153;SDS011;8692;52.164;7.558;2023-02-15T04:05:40;12.30;;;8.70;;
17153;SDS011;8692;52.164;7.558;2023-02-15T04:08:10;11.67;;;8.50;;
17153;SDS011;8692;52.164;7.558;2023-02-15T04:10:39;14.67;;;9.50;;
17153;SDS011;8692;52.164;7.558;2023-02-15T04:13:19;14.77;;;9.60;;
17153;SDS011;8692;52.164;7.558;2023-02-15T04:15:50;15.07;;;9.07;;
17153;SDS011;8692;52.164;7.558;2023-02-15T04:18:33;12.43;;;9.43;;
17153;SDS011;8692;52.164;7.558;2023-02-15T04:21:21;10.17;;;8.33;;
17153;SDS011;8692;52.164;7.558;2023-02-15T04:24:11;11.37;;;8.57;;
17153;SDS011;8692;52.164;7.558;2023-02-15T04:26:58;13.03;;;9.10;;
17153;SDS011;8692;52.164;7.558;2023-02-15T04:29:27;14.93;;;9.77;;
17153;SDS011;8692;52.164;7.558;2023-02-15T04:31:58;12.77;;;9.83;;
17153;SDS011;8692;52.164;7.558;2023-02-15T04:34:29;13.97;;;9.57;;
17153;SDS011;8692;52.164;7.558;2023-02-15T04:36:57;14.43;;;9.33;;
17153;SDS011;8692;52.164;7.558;2023-02-15T04:39:27;13.40;;;9.63;;
17153;SDS011;8692;52.164;7.558;2023-02-15T04:41:57;17.70;;;10.00;;
17153;SDS011;8692;52.164;7.558;2023-02-15T04:44:25;12.23;;;9.17;;
17153;SDS011;8692;52.164;7.558;2023-02-15T04:46:54;15.17;;;9.90;;
17153;SDS011;8692;52.164;7.558;2023-02-15T04:49:22;12.13;;;8.70;;
17153;SDS011;8692;52.164;7.558;2023-02-15T04:51:52;12.33;;;9.13;;
17153;SDS011;8692;52.164;7.558;2023-02-15T04:54:22;14.70;;;9.77;;
17153;SDS011;8692;52.164;7.558;2023-02-15T04:56:52;13.47;;;9.63;;
17153;SDS011;8692;52.164;7.558;2023-02-15T04:59:22;13.37;;;9.77;;
17153;SDS011;8692;52.164;7.558;2023-02-15T05:01:50;13.67;;;10.10;;
17153;SDS011;8692;52.164;7.558;2023-02-15T05:04:18;15.00;;;10.50;;
17153;SDS011;8692;52.164;7.558;2023-02-15T05:06:49;14.50;;;9.43;;
17153;SDS011;8692;52.164;7.558;2023-02-15T05:09:17;16.23;;;10.03;;
17153;SDS011;8692;52.164;7.558;2023-02-15T05:11:45;11.83;;;9.10;;
17153;SDS011;8692;52.164;7.558;2023-02-15T05:14:15;14.33;;;9.93;;
17153;SDS011;8692;52.164;7.558;2023-02-15T05:16:43;13.47;;;9.73;;
17153;SDS011;8692;52.164;7.558;2023-02-15T05:19:14;16.37;;;10.20;;
17153;SDS011;8692;52.164;7.558;2023-02-15T05:21:42;12.70;;;9.23;;
17153;SDS011;8692;52.164;7.558;2023-02-15T05:24:10;13.73;;;10.07;;
17153;SDS011;8692;52.164;7.558;2023-02-15T05:26:56;14.33;;;9.20;;
17153;SDS011;8692;52.164;7.558;2023-02-15T05:29:42;12.63;;;9.20;;
17153;SDS011;8692;52.164;7.558;2023-02-15T05:32:12;12.83;;;8.90;;
17153;SDS011;8692;52.164;7.558;2023-02-15T05:34:43;12.40;;;9.37;;
17153;SDS011;8692;52.164;7.558;2023-02-15T05:37:11;14.40;;;9.77;;
17153;SDS011;8692;52.164;7.558;2023-02-15T05:39:41;15.37;;;9.80;;
17153;SDS011;8692;52.164;7.558;2023-02-15T05:42:12;13.17;;;9.27;;
17153;SDS011;8692;52.164;7.558;2023-02-15T05:44:43;15.57;;;9.67;;
17153;SDS011;8692;52.164;7.558;2023-02-15T05:47:12;13.27;;;9.67;;
17153;SDS011;8692;52.164;7.558;2023-02-15T05:49:40;14.97;;;9.07;;
17153;SDS011;8692;52.164;7.558;2023-02-15T05:52:10;12.90;;;9.43;;
17153;SDS011;8692;52.164;7.558;2023-02-15T05:54:41;13.97;;;9.10;;
17153;SDS011;8692;52.164;7.558;2023-02-15T05:57:09;14.40;;;9.00;;
17153;SDS011;8692;52.164;7.558;2023-02-15T05:59:37;14.30;;;10.03;;
17153;SDS011;8692;52.164;7.558;2023-02-15T06:02:06;11.77;;;9.00;;
17153;SDS011;8692;52.164;7.558;2023-02-15T06:04:35;14.13;;;9.60;;
17153;SDS011;8692;52.164;7.558;2023-02-15T06:07:03;14.47;;;10.17;;
17153;SDS011;8692;52.164;7.558;2023-02-15T06:09:33;12.67;;;8.30;;
17153;SDS011;8692;52.164;7.558;2023-02-15T06:12:01;13.30;;;9.50;;
17153;SDS011;8692;52.164;7.558;2023-02-15T06:14:29;14.07;;;9.20;;
17153;SDS011;8692;52.164;7.558;2023-02-15T06:16:58;15.83;;;12.27;;
17153;SDS011;8692;52.164;7.558;2023-02-15T06:19:27;13.77;;;9.97;;
17153;SDS011;8692;52.164;7.558;2023-02-15T06:21:55;11.53;;;9.03;;
17153;SDS011;8692;52.164;7.558;2023-02-15T06:24:23;15.85;;;13.82;;
17153;SDS011;8692;52.164;7.558;2023-02-15T06:26:54;14.77;;;10.43;;
17153;SDS011;8692;52.164;7.558;2023-02-15T06:29:22;12.93;;;9.17;;
17153;SDS011;8692;52.164;7.558;2023-02-15T06:31:51;14.97;;;9.83;;
17153;SDS011;8692;52.164;7.558;2023-02-15T06:34:20;13.30;;;10.10;;
17153;SDS011;8692;52.164;7.558;2023-02-15T06:36:50;13.50;;;9.63;;
17153;SDS011;8692;52.164;7.558;2023-02-15T06:39:21;13.50;;;10.10;;
17153;SDS011;8692;52.164;7.558;2023-02-15T06:41:52;12.90;;;9.33;;
17153;SDS011;8692;52.164;7.558;2023-02-15T06:44:23;16.43;;;9.90;;
17153;SDS011;8692;52.164;7.558;2023-02-15T06:46:54;15.20;;;9.30;;
17153;SDS011;8692;52.164;7.558;2023-02-15T06:49:22;13.27;;;9.43;;
17153;SDS011;8692;52.164;7.558;2023-02-15T06:51:51;13.40;;;9.60;;
17153;SDS011;8692;52.164;7.558;2023-02-15T06:54:19;12.53;;;8.70;;
17153;SDS011;8692;52.164;7.558;2023-02-15T06:56:48;12.90;;;8.90;;
17153;SDS011;8692;52.164;7.558;2023-02-15T06:59:18;17.63;;;9.33;;
17153;SDS011;8692;52.164;7.558;2023-02-15T07:01:46;12.97;;;9.07;;
17153;SDS011;8692;52.164;7.558;2023-02-15T07:04:15;14.53;;;9.47;;
17153;SDS011;8692;52.164;7.558;2023-02-15T07:06:43;12.37;;;9.17;;
17153;SDS011;8692;52.164;7.558;2023-02-15T07:09:15;12.40;;;8.90;;
17153;SDS011;8692;52.164;7.558;2023-02-15T07:11:46;18.10;;;10.43;;
17153;SDS011;8692;52.164;7.558;2023-02-15T07:14:34;12.40;;;8.50;;
17153;SDS011;8692;52.164;7.558;2023-02-15T07:17:02;12.63;;;9.27;;
17153;SDS011;8692;52.164;7.558;2023-02-15T07:19:40;12.80;;;8.70;;
17153;SDS011;8692;52.164;7.558;2023-02-15T07:22:10;12.47;;;8.90;;
17153;SDS011;8692;52.164;7.558;2023-02-15T07:24:40;12.43;;;8.50;;
17153;SDS011;8692;52.164;7.558;2023-02-15T07:27:08;11.13;;;8.50;;
17153;SDS011;8692;52.164;7.558;2023-02-15T07:29:38;12.10;;;9.27;;
17153;SDS011;8692;52.164;7.558;2023-02-15T07:32:07;14.00;;;8.87;;
17153;SDS011;8692;52.164;7.558;2023-02-15T07:34:37;13.20;;;9.77;;
17153;SDS011;8692;52.164;7.558;2023-02-15T07:37:05;13.30;;;9.07;;
17153;SDS011;8692;52.164;7.558;2023-02-15T07:39:36;14.20;;;10.30;;
17153;SDS011;8692;52.164;7.558;2023-02-15T07:42:05;13.77;;;9.50;;
17153;SDS011;8692;52.164;7.558;2023-02-15T07:44:35;13.87;;;8.80;;
17153;SDS011;8692;52.164;7.558;2023-02-15T07:47:04;14.10;;;8.93;;
17153;SDS011;8692;52.164;7.558;2023-02-15T07:49:32;14.70;;;9.97;;
17153;SDS011;8692;52.164;7.558;2023-02-15T07:52:07;14.17;;;9.30;;
17153;SDS011;8692;52.164;7.558;2023-02-15T07:54:38;14.47;;;9.17;;
17153;SDS011;8692;52.164;7.558;2023-02-15T07:57:10;14.00;;;9.33;;
17153;SDS011;8692;52.164;7.558;2023-02-15T07:59:38;15.13;;;9.63;;
17153;SDS011;8692;52.164;7.558;2023-02-15T08:02:10;15.43;;;9.77;;
17153;SDS011;8692;52.164;7.558;2023-02-15T08:04:38;13.80;;;9.37;;
17153;SDS011;8692;52.164;7.558;2023-02-15T08:07:08;13.80;;;9.77;;
17153;SDS011;8692;52.164;7.558;2023-02-15T08:09:37;14.77;;;9.87;;
17153;SDS011;8692;52.164;7.558;2023-02-15T08:12:05;15.63;;;9.93;;
17153;SDS011;8692;52.164;7.558;2023-02-15T08:14:35;16.60;;;11.00;;
17153;SDS011;8692;52.164;7.558;2023-02-15T08:17:03;15.07;;;10.77;;
17153;SDS011;8692;52.164;7.558;2023-02-15T08:19:33;15.67;;;10.43;;
17153;SDS011;8692;52.164;7.558;2023-02-15T08:22:05;15.17;;;10.53;;
17153;SDS011;8692;52.164;7.558;2023-02-15T08:24:37;16.90;;;10.83;;
17153;SDS011;8692;52.164;7.558;2023-02-15T08:27:05;16.00;;;10.73;;
17153;SDS011;8692;52.164;7.558;2023-02-15T08:29:37;15.63;;;11.60;;
17153;SDS011;8692;52.164;7.558;2023-02-15T08:32:07;13.00;;;9.53;;
17153;SDS011;8692;52.164;7.558;2023-02-15T08:34:37;19.73;;;11.70;;
17153;SDS011;8692;52.164;7.558;2023-02-15T08:37:07;19.33;;;11.10;;
17153;SDS011;8692;52.164;7.558;2023-02-15T08:39:37;14.87;;;10.93;;
17153;SDS011;8692;52.164;7.558;2023-02-15T08:42:08;17.90;;;12.13;;
17153;SDS011;8692;52.164;7.558;2023-02-15T08:44:37;15.67;;;11.73;;
17153;SDS011;8692;52.164;7.558;2023-02-15T08:47:05;19.20;;;12.63;;
17153;SDS011;8692;52.164;7.558;2023-02-15T08:49:33;19.53;;;12.57;;
17153;SDS011;8692;52.164;7.558;2023-02-15T08:52:02;18.60;;;12.33;;
17153;SDS011;8692;52.164;7.558;2023-02-15T08:54:30;17.50;;;12.57;;
17153;SDS011;8692;52.164;7.558;2023-02-15T08:56:58;17.03;;;12.53;;
17153;SDS011;8692;52.164;7.558;2023-02-15T08:59:26;22.07;;;13.70;;
17153;SDS011;8692;52.164;7.558;2023-02-15T09:01:56;16.37;;;12.60;;
17153;SDS011;8692;52.164;7.558;2023-02-15T09:04:24;19.30;;;13.13;;
17153;SDS011;8692;52.164;7.558;2023-02-15T09:06:55;19.80;;;13.67;;
17153;SDS011;8692;52.164;7.558;2023-02-15T09:09:25;17.53;;;13.37;;
17153;SDS011;8692;52.164;7.558;2023-02-15T09:11:56;21.77;;;13.37;;
17153;SDS011;8692;52.164;7.558;2023-02-15T09:14:25;18.10;;;13.63;;
17153;SDS011;8692;52.164;7.558;2023-02-15T09:16:57;21.87;;;14.20;;
17153;SDS011;8692;52.164;7.558;2023-02-15T09:19:25;22.50;;;13.93;;
17153;SDS011;8692;52.164;7.558;2023-02-15T09:21:56;18.80;;;13.70;;
17153;SDS011;8692;52.164;7.558;2023-02-15T09:24:24;23.80;;;14.83;;
17153;SDS011;8692;52.164;7.558;2023-02-15T09:26:53;18.83;;;14.23;;
17153;SDS011;8692;52.164;7.558;2023-02-15T09:29:21;20.97;;;14.33;;
17153;SDS011;8692;52.164;7.558;2023-02-15T09:31:51;24.50;;;15.13;;
17153;SDS011;8692;52.164;7.558;2023-02-15T09:34:21;23.57;;;15.60;;
17153;SDS011;8692;52.164;7.558;2023-02-15T09:36:52;25.53;;;14.70;;
17153;SDS011;8692;52.164;7.558;2023-02-15T09:39:21;24.07;;;15.40;;
17153;SDS011;8692;52.164;7.558;2023-02-15T09:44:54;19.53;;;14.17;;
17153;SDS011;8692;52.164;7.558;2023-02-15T09:47:57;20.93;;;15.73;;
17153;SDS011;8692;52.164;7.558;2023-02-15T09:50:41;18.93;;;15.00;;
17153;SDS011;8692;52.164;7.558;2023-02-15T09:53:21;23.70;;;16.73;;
17153;SDS011;8692;52.164;7.558;2023-02-15T09:56:02;24.30;;;17.00;;
17153;SDS011;8692;52.164;7.558;2023-02-15T09:58:42;21.83;;;15.97;;
17153;SDS011;8692;52.164;7.558;2023-02-15T10:01:22;24.63;;;15.83;;
17153;SDS011;8692;52.164;7.558;2023-02-15T10:04:02;23.70;;;16.00;;
17153;SDS011;8692;52.164;7.558;2023-02-15T10:06:51;24.50;;;17.27;;
17153;SDS011;8692;52.164;7.558;2023-02-15T10:09:32;24.70;;;16.03;;
17153;SDS011;8692;52.164;7.558;2023-02-15T10:12:11;23.57;;;15.77;;
17153;SDS011;8692;52.164;7.558;2023-02-15T10:15:04;22.27;;;17.17;;
17153;SDS011;8692;52.164;7.558;2023-02-15T10:17:57;26.50;;;17.50;;
17153;SDS011;8692;52.164;7.558;2023-02-15T10:20:38;27.50;;;17.50;;
17153;SDS011;8692;52.164;7.558;2023-02-15T10:23:24;23.83;;;17.67;;
17153;SDS011;8692;52.164;7.558;2023-02-15T10:26:11;23.57;;;17.27;;
17153;SDS011;8692;52.164;7.558;2023-02-15T10:28:45;25.43;;;17.80;;
17153;SDS011;8692;52.164;7.558;2023-02-15T10:31:22;23.77;;;16.93;;
17153;SDS011;8692;52.164;7.558;2023-02-15T10:34:00;26.70;;;18.00;;
17153;SDS011;8692;52.164;7.558;2023-02-15T10:36:53;24.93;;;17.37;;
17153;SDS011;8692;52.164;7.558;2023-02-15T10:39:37;24.13;;;17.70;;
17153;SDS011;8692;52.164;7.558;2023-02-15T10:42:14;23.20;;;17.43;;
17153;SDS011;8692;52.164;7.558;2023-02-15T10:44:55;25.60;;;19.00;;
17153;SDS011;8692;52.164;7.558;2023-02-15T10:50:34;22.80;;;17.83;;
17153;SDS011;8692;52.164;7.558;2023-02-15T10:53:24;24.67;;;18.60;;
17153;SDS011;8692;52.164;7.558;2023-02-15T10:56:09;29.73;;;18.97;;
17153;SDS011;8692;52.164;7.558;2023-02-15T10:58:51;22.77;;;17.77;;
17153;SDS011;8692;52.164;7.558;2023-02-15T11:01:34;22.47;;;17.27;;
17153;SDS011;8692;52.164;7.558;2023-02-15T11:04:20;24.60;;;17.53;;
17153;SDS011;8692;52.164;7.558;2023-02-15T11:07:12;25.23;;;17.43;;
17153;SDS011;8692;52.164;7.558;2023-02-15T11:09:44;25.40;;;18.47;;
17153;SDS011;8692;52.164;7.558;2023-02-15T11:12:19;28.83;;;19.57;;
17153;SDS011;8692;52.164;7.558;2023-02-15T11:14:54;23.70;;;18.00;;
17153;SDS011;8692;52.164;7.558;2023-02-15T11:17:26;26.00;;;18.93;;
17153;SDS011;8692;52.164;7.558;2023-02-15T11:19:59;26.77;;;18.90;;
17153;SDS011;8692;52.164;7.558;2023-02-15T11:22:35;25.40;;;17.83;;
17153;SDS011;8692;52.164;7.558;2023-02-15T11:25:14;24.00;;;18.90;;
17153;SDS011;8692;52.164;7.558;2023-02-15T11:27:49;26.53;;;19.73;;
17153;SDS011;8692;52.164;7.558;2023-02-15T11:30:19;24.97;;;18.23;;
17153;SDS011;8692;52.164;7.558;2023-02-15T11:32:51;23.23;;;18.23;;
17153;SDS011;8692;52.164;7.558;2023-02-15T11:35:24;25.93;;;19.23;;
17153;SDS011;8692;52.164;7.558;2023-02-15T11:37:57;23.70;;;18.33;;
17153;SDS011;8692;52.164;7.558;2023-02-15T11:40:33;24.30;;;19.03;;
17153;SDS011;8692;52.164;7.558;2023-02-15T11:43:13;24.40;;;19.07;;
17153;SDS011;8692;52.164;7.558;2023-02-15T11:45:45;22.87;;;18.10;;
17153;SDS011;8692;52.164;7.558;2023-02-15T11:48:14;27.67;;;19.67;;
17153;SDS011;8692;52.164;7.558;2023-02-15T11:50:46;27.13;;;19.47;;
17153;SDS011;8692;52.164;7.558;2023-02-15T11:53:16;28.50;;;20.90;;
17153;SDS011;8692;52.164;7.558;2023-02-15T11:55:48;24.83;;;18.73;;
17153;SDS011;8692;52.164;7.558;2023-02-15T11:58:23;22.77;;;18.83;;
17153;SDS011;8692;52.164;7.558;2023-02-15T12:01:00;24.63;;;19.00;;
17153;SDS011;8692;52.164;7.558;2023-02-15T12:03:39;23.80;;;19.57;;
17153;SDS011;8692;52.164;7.558;2023-02-15T12:06:15;32.80;;;20.53;;
17153;SDS011;8692;52.164;7.558;2023-02-15T12:08:59;26.37;;;19.80;;
17153;SDS011;8692;52.164;7.558;2023-02-15T12:11:34;22.40;;;18.57;;
17153;SDS011;8692;52.164;7.558;2023-02-15T12:14:08;31.87;;;20.37;;
17153;SDS011;8692;52.164;7.558;2023-02-15T12:16:41;29.40;;;20.43;;
17153;SDS011;8692;52.164;7.558;2023-02-15T12:19:26;28.00;;;20.43;;
17153;SDS011;8692;52.164;7.558;2023-02-15T12:21:57;30.37;;;19.87;;
17153;SDS011;8692;52.164;7.558;2023-02-15T12:24:31;28.27;;;23.58;;
17153;SDS011;8692;52.164;7.558;2023-02-15T12:27:02;27.37;;;20.50;;
17153;SDS011;8692;52.164;7.558;2023-02-15T12:29:35;24.00;;;18.90;;
17153;SDS011;8692;52.164;7.558;2023-02-15T12:32:09;27.90;;;19.93;;
17153;SDS011;8692;52.164;7.558;2023-02-15T12:34:44;24.43;;;20.53;;
17153;SDS011;8692;52.164;7.558;2023-02-15T12:37:17;27.93;;;20.37;;
17153;SDS011;8692;52.164;7.558;2023-02-15T12:39:52;26.87;;;20.00;;
17153;SDS011;8692;52.164;7.558;2023-02-15T12:42:22;27.90;;;20.37;;
17153;SDS011;8692;52.164;7.558;2023-02-15T12:44:56;29.37;;;20.80;;
17153;SDS011;8692;52.164;7.558;2023-02-15T12:47:26;27.17;;;20.73;;
17153;SDS011;8692;52.164;7.558;2023-02-15T12:50:06;26.53;;;19.23;;
17153;SDS011;8692;52.164;7.558;2023-02-15T12:52:46;27.80;;;20.83;;
17153;SDS011;8692;52.164;7.558;2023-02-15T12:55:19;29.57;;;20.20;;
17153;SDS011;8692;52.164;7.558;2023-02-15T12:57:58;32.40;;;20.67;;
17153;SDS011;8692;52.164;7.558;2023-02-15T13:00:37;30.40;;;20.90;;
17153;SDS011;8692;52.164;7.558;2023-02-15T13:03:14;32.77;;;21.13;;
17153;SDS011;8692;52.164;7.558;2023-02-15T13:05:44;31.27;;;20.43;;
17153;SDS011;8692;52.164;7.558;2023-02-15T13:08:15;26.23;;;20.83;;
17153;SDS011;8692;52.164;7.558;2023-02-15T13:10:52;31.73;;;22.20;;
17153;SDS011;8692;52.164;7.558;2023-02-15T13:13:22;35.90;;;21.80;;
17153;SDS011;8692;52.164;7.558;2023-02-15T13:15:55;27.63;;;19.73;;
17153;SDS011;8692;52.164;7.558;2023-02-15T13:18:30;30.77;;;20.37;;
17153;SDS011;8692;52.164;7.558;2023-02-15T13:21:05;33.03;;;20.80;;
17153;SDS011;8692;52.164;7.558;2023-02-15T13:23:39;30.97;;;20.43;;
17153;SDS011;8692;52.164;7.558;2023-02-15T13:26:15;28.50;;;20.93;;
17153;SDS011;8692;52.164;7.558;2023-02-15T13:28:47;27.80;;;20.03;;
17153;SDS011;8692;52.164;7.558;2023-02-15T13:31:27;30.87;;;19.43;;
17153;SDS011;8692;52.164;7.558;2023-02-15T13:34:00;30.33;;;20.10;;
17153;SDS011;8692;52.164;7.558;2023-02-15T13:36:33;30.23;;;18.50;;
17153;SDS011;8692;52.164;7.558;2023-02-15T13:39:12;32.40;;;20.43;;
17153;SDS011;8692;52.164;7.558;2023-02-15T13:41:52;28.47;;;19.77;;
17153;SDS011;8692;52.164;7.558;2023-02-15T13:44:29;27.80;;;20.10;;
17153;SDS011;8692;52.164;7.558;2023-02-15T13:47:20;28.43;;;19.47;;
17153;SDS011;8692;52.164;7.558;2023-02-15T13:50:01;28.50;;;19.93;;
17153;SDS011;8692;52.164;7.558;2023-02-15T13:52:42;27.90;;;20.10;;
17153;SDS011;8692;52.164;7.558;2023-02-15T13:55:33;28.43;;;20.23;;
17153;SDS011;8692;52.164;7.558;2023-02-15T13:58:08;29.43;;;19.50;;
17153;SDS011;8692;52.164;7.558;2023-02-15T14:00:52;31.23;;;19.77;;
17153;SDS011;8692;52.164;7.558;2023-02-15T14:03:46;27.67;;;19.63;;
17153;SDS011;8692;52.164;7.558;2023-02-15T14:06:38;27.67;;;18.87;;
17153;SDS011;8692;52.164;7.558;2023-02-15T14:09:31;27.83;;;19.33;;
17153;SDS011;8692;52.164;7.558;2023-02-15T14:12:15;23.73;;;18.43;;
17153;SDS011;8692;52.164;7.558;2023-02-15T14:15:05;29.93;;;20.57;;
17153;SDS011;8692;52.164;7.558;2023-02-15T14:17:46;26.63;;;19.40;;
17153;SDS011;8692;52.164;7.558;2023-02-15T14:20:28;27.77;;;18.90;;
17153;SDS011;8692;52.164;7.558;2023-02-15T14:23:04;29.10;;;19.40;;
17153;SDS011;8692;52.164;7.558;2023-02-15T14:25:41;24.20;;;18.13;;
17153;SDS011;8692;52.164;7.558;2023-02-15T14:28:15;27.27;;;19.03;;
17153;SDS011;8692;52.164;7.558;2023-02-15T14:30:49;28.13;;;18.73;;
17153;SDS011;8692;52.164;7.558;2023-02-15T14:33:28;27.83;;;18.93;;
17153;SDS011;8692;52.164;7.558;2023-02-15T14:36:03;28.93;;;18.87;;
17153;SDS011;8692;52.164;7.558;2023-02-15T14:38:40;24.57;;;18.20;;
17153;SDS011;8692;52.164;7.558;2023-02-15T14:41:26;26.70;;;17.83;;
17153;SDS011;8692;52.164;7.558;2023-02-15T14:44:04;28.10;;;18.97;;
17153;SDS011;8692;52.164;7.558;2023-02-15T14:46:42;28.60;;;18.83;;
17153;SDS011;8692;52.164;7.558;2023-02-15T14:49:17;27.13;;;18.60;;
17153;SDS011;8692;52.164;7.558;2023-02-15T14:51:57;25.37;;;18.53;;
17153;SDS011;8692;52.164;7.558;2023-02-15T14:57:24;25.47;;;18.60;;
17153;SDS011;8692;52.164;7.558;2023-02-15T14:59:54;28.33;;;18.73;;
17153;SDS011;8692;52.164;7.558;2023-02-15T15:02:26;23.17;;;17.83;;
17153;SDS011;8692;52.164;7.558;2023-02-15T15:04:59;28.13;;;18.47;;
17153;SDS011;8692;52.164;7.558;2023-02-15T15:07:41;26.07;;;18.37;;
17153;SDS011;8692;52.164;7.558;2023-02-15T15:16:24;23.73;;;18.63;;
17153;SDS011;8692;52.164;7.558;2023-02-15T15:18:58;29.57;;;18.23;;
17153;SDS011;8692;52.164;7.558;2023-02-15T15:27:38;24.43;;;16.90;;
17153;SDS011;8692;52.164;7.558;2023-02-15T15:36:46;27.10;;;18.33;;
17153;SDS011;8692;52.164;7.558;2023-02-15T15:42:49;26.30;;;18.17;;
17153;SDS011;8692;52.164;7.558;2023-02-15T15:45:26;23.80;;;17.10;;
17153;SDS011;8692;52.164;7.558;2023-02-15T15:48:13;27.80;;;18.90;;
17153;SDS011;8692;52.164;7.558;2023-02-15T15:50:59;28.37;;;19.73;;
17153;SDS011;8692;52.164;7.558;2023-02-15T15:53:32;31.03;;;21.60;;
17153;SDS011;8692;52.164;7.558;2023-02-15T15:56:11;26.03;;;19.33;;
17153;SDS011;8692;52.164;7.558;2023-02-15T15:58:42;30.90;;;21.57;;
17153;SDS011;8692;52.164;7.558;2023-02-15T16:01:14;32.03;;;21.73;;